createdAt,value
2022-08-31T01:26:18.575Z,92.78
2022-08-31T05:46:09.490Z,91.35
2022-08-31T09:37:24.666Z,61.22
2022-08-31T09:47:03.200Z,59.65
2022-08-31T09:56:40.942Z,58.31
2022-08-31T10:06:20.653Z,58.2
2022-08-31T10:15:54.633Z,58.75
2022-08-31T10:25:31.923Z,56.89
2022-08-31T10:35:10.706Z,57.32
2022-08-31T10:44:46.110Z,55.94
2022-08-31T10:54:25.060Z,54.69
2022-08-31T11:04:07.163Z,53.86
2022-08-31T11:13:49.687Z,47.99
2022-08-31T11:23:28.565Z,48.64
2022-08-31T11:33:07.818Z,47.4
2022-08-31T11:42:46.998Z,44
2022-08-31T11:52:23.839Z,46.34
2022-08-31T12:02:00.759Z,45.6
2022-08-31T12:21:12.602Z,45.25
2022-08-31T12:30:51.169Z,44.97
2022-08-31T12:40:31.613Z,43.79
2022-08-31T12:50:07.568Z,44.81
2022-08-31T13:00:00.380Z,42.73
2022-08-31T13:09:23.870Z,44.81
2022-08-31T13:18:59.855Z,47.24
2022-08-31T13:28:37.611Z,44.86
2022-08-31T13:38:17.817Z,43.88
2022-08-31T13:57:37.619Z,41.43
2022-08-31T14:07:17.471Z,41.08
2022-08-31T14:16:52.925Z,42.6
2022-08-31T14:26:27.330Z,42.86
2022-08-31T14:36:03.359Z,43.13
2022-08-31T14:45:39.696Z,44.01
2022-08-31T14:55:16.626Z,43.03
2022-08-31T15:04:54.025Z,44.19
2022-08-31T15:14:32.136Z,44.94
2022-08-31T15:24:12.728Z,44.67
2022-08-31T15:33:50.254Z,45.34
2022-08-31T15:43:26.817Z,46.45
2022-08-31T15:53:08.761Z,48.7
2022-08-31T16:02:39.554Z,49.51
2022-08-31T16:12:15.493Z,49.01
2022-08-31T16:31:28.221Z,49.81
2022-08-31T16:41:04.976Z,51.05
2022-08-31T16:50:41.488Z,52.66
2022-08-31T17:00:18.368Z,53.6
2022-08-31T17:09:55.090Z,53.23
2022-08-31T17:29:08.586Z,54.25
2022-08-31T17:38:45.952Z,54.36
2022-08-31T17:48:23.039Z,55.37
2022-08-31T18:17:12.937Z,60.6
2022-08-31T18:46:02.797Z,64
2022-08-31T18:55:38.738Z,65.73
2022-08-31T19:05:15.463Z,67
2022-08-31T19:14:52.948Z,68.94
2022-08-31T19:24:29.962Z,70
2022-08-31T19:34:07.934Z,71.31
2022-08-31T19:53:22.236Z,72.85
2022-08-31T20:02:58.894Z,72.98
2022-08-31T20:12:35.631Z,74.06
2022-08-31T20:22:12.558Z,74.44
2022-08-31T20:41:26.764Z,76.31
2022-08-31T21:00:41.391Z,75.64
2022-08-31T21:19:56.530Z,74.55
2022-08-31T21:39:10.616Z,73.45
2022-08-31T21:58:26.029Z,68.51
2022-08-31T22:08:03.681Z,71.38
2022-08-31T22:36:54.942Z,74.03
